Aérodrome :
LOGIN :

S'inscrire | Disclaimer

   EN    FR    IT 

 










Légende :    VFR   VFR Marginal   IFR   IFR Intensif   IFR Très Intensif
Visi : 
Plafond : 
>= 8 km
>= 3000ft
5 à 8 km
1000 à 3000 ft
1500m à 5 km
500 à 1000 ft
800 à 1500m
200 à 500 ft
< 800m
< 200 ft
Symboles :   Orages  Brouillard  Fortes neiges  Fortes précipitations  Vent > 20 kt
SIGMETs :   Divers  Orages  Givrage  Turbulence  Onde Orograph.  Cendres Volcan.







- Altitude de l'aérodrome : 650 ft
- Code IATA : ZJI


LSZL - Locarno

DERNIER METAR :
  • 120620Z VRB02KT CAVOK M02/M07 Q1020 RMK BLU

METARs EXPIRÉS :
  • 120550Z 08004KT 050V210 CAVOK M01/M07 Q1020 RMK BLU
  • 120520Z AUTO 08004KT 9999NDV NCD M02/M07 Q1020 RMK
  • 120450Z AUTO 07005KT 020V110 9999NDV NCD 00/M08 Q1020 RMK
  • 120420Z AUTO 07005KT 9999NDV NCD M01/M07 Q1020 RMK

TAF TAF LSZL
Valide du 12 à 06h jusqu'au 12 à 15h UTC


120525Z 1206/1215 VRB03KT CAVOK
Pas de NOTAMs connus pour ce terrain.



MET'MAP, la Météo Aéronautique d'un coup d'oeil ! - Copyright ORBIFLY Décembre 2007 - Disclaimer

ORBIFLY MET'MAP TEAM :

Programmation & Développement : Alexandra Zaïnal
Conception & Développement : Baudouin d'Aumeries
Co-Programmation & Développement : Marc-Olivier Méhu
Soutien technique & logistique : Manuel Goepfert

Contact : metmap@orbifly.com




SOURCES & CREDITS :

   NOAA